Time;durP1;ratioP1;P1;durP2;ratioP2;P2;SDS_P1;SDS_P2;PMS_P1;PMS_P2;Temp;Humidity;BMP_temperature;BMP_pressure;BME280_temperature;BME280_humidity;BME280_pressure;Samples;Min_cycle;Max_cycle;Signal;HPM_P1;HPM_P2
2021/10/25 10:42:05;;;;;;;1999.90;999.90;;;30.80;25.70;;;;;;4986664;28;20607;-62
2021/10/25 10:44:32;;;;;;;1999.90;999.90;;;31.00;27.80;;;;;;4987586;28;20270;-63
2021/10/25 10:47:07;;;;;;;1999.90;999.90;;;31.30;27.40;;;;;;4989879;28;20175;-70
2021/10/25 10:49:44;;;;;;;1999.90;999.90;;;32.20;28.10;;;;;;4989633;28;20245;-65
2021/10/25 10:52:48;;;;;;;1999.90;999.90;;;32.80;27.70;;;;;;4992433;28;20252;-67
2021/10/25 10:55:32;;;;;;;1999.90;999.90;;;32.70;26.90;;;;;;4990859;28;20151;-68
2021/10/25 11:00:36;;;;;;;1999.90;999.90;;;32.20;27.90;;;;;;4989760;28;20210;-66
2021/10/25 11:03:31;;;;;;;1999.90;999.90;;;32.20;26.70;;;;;;4990938;28;20246;-63
2021/10/25 11:06:03;;;;;;;1999.90;999.90;;;31.70;27.10;;;;;;4990610;28;20182;-65
2021/10/25 11:08:32;;;;;;;1999.90;999.90;;;31.60;27.10;;;;;;4991173;28;20591;-63
2021/10/25 11:11:06;;;;;;;1999.90;999.90;;;31.60;26.60;;;;;;4989917;28;20649;-71
2021/10/25 11:13:58;;;;;;;1999.90;999.90;;;31.50;27.50;;;;;;4988059;28;20179;-66
2021/10/25 11:19:11;;;;;;;1999.90;999.90;;;31.10;27.00;;;;;;4993881;28;20159;-66
2021/10/25 11:21:39;;;;;;;1999.90;999.90;;;31.40;27.90;;;;;;4990725;28;20218;-65
2021/10/25 11:24:12;;;;;;;1999.90;999.90;;;31.60;28.50;;;;;;4988856;28;20175;-66
2021/10/25 11:26:51;;;;;;;1999.90;999.90;;;31.50;28.10;;;;;;4988907;28;20309;-62
2021/10/25 11:29:24;;;;;;;1999.90;999.90;;;31.50;26.90;;;;;;4988920;28;20163;-62
2021/10/25 11:31:53;;;;;;;1999.90;999.90;;;31.60;28.10;;;;;;4989309;28;20173;-72
2021/10/25 11:34:26;;;;;;;1999.90;999.90;;;31.60;27.70;;;;;;4988277;28;20170;-70
2021/10/25 11:37:02;;;;;;;1999.90;999.90;;;31.60;25.90;;;;;;4988083;28;20233;-70
2021/10/25 11:39:41;;;;;;;1999.90;999.90;;;31.60;27.20;;;;;;4988743;28;20625;-71
2021/10/25 11:42:18;;;;;;;1999.90;999.90;;;32.00;25.70;;;;;;4987528;28;20721;-67
2021/10/25 11:44:47;;;;;;;1999.90;999.90;;;32.10;27.70;;;;;;4988737;28;20167;-62
2021/10/25 11:47:24;;;;;;;1999.90;999.90;;;31.80;27.40;;;;;;4988653;28;20227;-65
2021/10/25 11:50:18;;;;;;;1999.90;999.90;;;31.10;25.40;;;;;;4988621;28;20159;-63
2021/10/25 11:52:49;;;;;;;1999.90;999.90;;;31.00;26.20;;;;;;4976371;28;20650;-63
2021/10/25 11:55:25;;;;;;;1999.90;999.90;;;31.00;24.30;;;;;;4975906;28;20168;-61
2021/10/25 11:57:54;;;;;;;1999.90;999.90;;;31.00;27.40;;;;;;4974587;28;20164;-64
2021/10/25 12:00:23;;;;;;;1999.90;999.90;;;31.20;25.50;;;;;;4976485;28;20207;-65
2021/10/25 12:02:50;;;;;;;1999.90;999.90;;;31.10;24.70;;;;;;4975519;28;20230;-62
2021/10/25 12:05:24;;;;;;;1999.90;999.90;;;31.70;23.20;;;;;;4974804;28;20168;-63
2021/10/25 12:07:53;;;;;;;1999.90;999.90;;;31.90;26.40;;;;;;4975498;28;20159;-60
2021/10/25 12:10:22;;;;;;;1999.90;999.90;;;31.80;27.30;;;;;;4975307;28;20168;-63
2021/10/25 12:12:53;;;;;;;1999.90;999.90;;;31.70;27.80;;;;;;4974907;28;20168;-64
2021/10/25 12:15:22;;;;;;;1999.90;999.90;;;31.90;26.80;;;;;;4975047;28;20168;-64
2021/10/25 12:17:49;;;;;;;1999.90;999.90;;;32.10;26.10;;;;;;4975102;28;20188;-65
2021/10/25 12:20:32;;;;;;;1999.90;999.90;;;32.20;26.10;;;;;;4974731;28;20243;-64
2021/10/25 12:23:26;;;;;;;1999.90;999.90;;;32.50;26.60;;;;;;4975815;28;20684;-62
2021/10/25 12:26:04;;;;;;;1999.90;999.90;;;32.00;23.40;;;;;;4972632;28;20180;-65
2021/10/25 12:28:34;;;;;;;1999.90;999.90;;;32.00;23.50;;;;;;4972020;28;20179;-66
2021/10/25 12:31:11;;;;;;;1999.90;999.90;;;32.20;24.80;;;;;;4973740;28;20187;-63
2021/10/25 12:33:39;;;;;;;1999.90;999.90;;;32.20;25.40;;;;;;4972624;28;20214;-70
2021/10/25 12:36:23;;;;;;;1999.90;999.90;;;31.80;24.80;;;;;;4973798;28;20227;-70
2021/10/25 12:38:55;;;;;;;1999.90;999.90;;;31.20;25.00;;;;;;4972248;28;20584;-69
2021/10/25 12:41:22;;;;;;;1999.90;999.90;;;30.60;25.70;;;;;;4988764;28;20267;-66
2021/10/25 12:43:55;;;;;;;1999.90;999.90;;;30.50;26.70;;;;;;4991166;28;20178;-66
2021/10/25 12:46:29;;;;;;;1999.90;999.90;;;30.30;25.90;;;;;;4993641;28;20167;-65
2021/10/25 12:48:57;;;;;;;1999.90;999.90;;;30.70;25.40;;;;;;4993440;28;20195;-67
2021/10/25 12:51:35;;;;;;;1999.90;999.90;;;30.80;24.80;;;;;;4993749;28;20166;-65
2021/10/25 12:54:08;;;;;;;1999.90;999.90;;;31.20;25.00;;;;;;4993763;28;20167;-65
2021/10/25 12:56:35;;;;;;;1999.90;999.90;;;31.50;23.20;;;;;;4993344;28;20302;-65
2021/10/25 12:59:10;;;;;;;1999.90;999.90;;;31.70;23.70;;;;;;4992717;28;20179;-67
2021/10/25 13:01:38;;;;;;;1999.90;999.90;;;31.90;23.50;;;;;;4993534;28;20200;-73
2021/10/25 13:04:08;;;;;;;1999.90;999.90;;;31.40;22.30;;;;;;4991737;28;20170;-64
2021/10/25 13:06:35;;;;;;;1999.90;999.90;;;31.60;22.60;;;;;;4994023;28;20637;-70
2021/10/25 13:09:10;;;;;;;1999.90;999.90;;;31.70;22.50;;;;;;4993837;28;20190;-69
2021/10/25 13:11:38;;;;;;;1999.90;999.90;;;31.90;21.50;;;;;;4993431;28;20161;-71
2021/10/25 13:14:07;;;;;;;1999.90;999.90;;;32.10;22.40;;;;;;4993945;28;20263;-68
2021/10/25 13:16:54;;;;;;;1999.90;999.90;;;31.90;24.00;;;;;;4993765;28;20209;-69
2021/10/25 13:19:21;;;;;;;1999.90;999.90;;;30.80;23.70;;;;;;4993461;28;20247;-67
2021/10/25 13:21:48;;;;;;;1999.90;999.90;;;30.40;26.40;;;;;;4994175;28;20238;-74
2021/10/25 13:24:15;;;;;;;1999.90;999.90;;;30.80;24.70;;;;;;4993950;28;20179;-74
2021/10/25 13:26:42;;;;;;;1999.90;999.90;;;31.00;25.50;;;;;;4993805;28;20171;-72
2021/10/25 13:29:09;;;;;;;1999.90;999.90;;;31.30;24.70;;;;;;4993896;28;20584;-72
2021/10/25 13:31:36;;;;;;;1999.90;999.90;;;31.50;23.70;;;;;;4993411;28;20171;-69
2021/10/25 13:34:03;;;;;;;1999.90;999.90;;;31.80;25.40;;;;;;4993262;28;20159;-69
2021/10/25 13:36:31;;;;;;;1999.90;999.90;;;31.90;23.00;;;;;;4993400;28;20171;-70
2021/10/25 13:38:58;;;;;;;1999.90;999.90;;;32.00;25.20;;;;;;4993153;28;20167;-72
2021/10/25 13:41:25;;;;;;;1999.90;999.90;;;32.00;24.40;;;;;;4992643;28;20703;-70
2021/10/25 13:43:52;;;;;;;1999.90;999.90;;;31.60;23.50;;;;;;4992896;28;20170;-70
2021/10/25 13:46:20;;;;;;;1999.90;999.90;;;31.70;24.30;;;;;;4993497;28;20171;-72
2021/10/25 13:48:47;;;;;;;1999.90;999.90;;;31.40;24.00;;;;;;4992564;28;20174;-68
2021/10/25 13:51:14;;;;;;;1999.90;999.90;;;31.30;25.00;;;;;;4993418;28;20245;-70
2021/10/25 13:53:40;;;;;;;1999.90;999.90;;;30.50;25.30;;;;;;4991644;28;20652;-71
2021/10/25 13:56:08;;;;;;;1999.90;999.90;;;30.20;26.50;;;;;;4992768;28;20174;-69
2021/10/25 13:58:35;;;;;;;1999.90;999.90;;;30.10;26.70;;;;;;4992963;28;20167;-68
2021/10/25 14:01:03;;;;;;;1999.90;999.90;;;30.10;26.80;;;;;;4992936;28;20233;-69
2021/10/25 14:03:31;;;;;;;1999.90;999.90;;;30.00;25.30;;;;;;4992665;28;20220;-70
2021/10/25 14:06:03;;;;;;;1999.90;999.90;;;30.20;24.80;;;;;;4992831;28;20221;-70
2021/10/25 14:08:30;;;;;;;1999.90;999.90;;;30.30;25.50;;;;;;4993378;28;20616;-68
2021/10/25 14:10:57;;;;;;;1999.90;999.90;;;29.90;26.00;;;;;;4992741;28;20606;-68
2021/10/25 14:18:40;;;;;;;1999.90;999.90;;;29.50;26.50;;;;;;4992384;28;20626;-68
2021/10/25 14:21:07;;;;;;;1999.90;999.90;;;29.40;26.70;;;;;;4992729;28;20195;-68
2021/10/25 14:23:34;;;;;;;1999.90;999.90;;;29.40;26.00;;;;;;4992391;28;20685;-68
2021/10/25 14:26:02;;;;;;;1999.90;999.90;;;29.40;27.00;;;;;;4992625;28;20181;-69
2021/10/25 14:28:30;;;;;;;1999.90;999.90;;;29.50;27.40;;;;;;4992215;28;20213;-67
2021/10/25 14:31:00;;;;;;;1999.90;999.90;;;29.60;27.20;;;;;;4993168;28;20251;-73
2021/10/25 14:33:27;;;;;;;1999.90;999.90;;;29.80;27.20;;;;;;4992238;28;20178;-71
2021/10/25 14:35:57;;;;;;;1999.90;999.90;;;30.00;27.60;;;;;;4993093;28;20171;-70
2021/10/25 14:44:04;;;;;;;1999.90;999.90;;;30.00;27.80;;;;;;4964844;28;20207;-70
2021/10/25 14:49:14;;;;;;;1999.90;999.90;;;29.40;27.00;;;;;;4991975;28;20171;-71
2021/10/25 14:54:33;;;;;;;1999.90;999.90;;;29.50;28.50;;;;;;4992564;28;20526;-68
2021/10/25 14:57:00;;;;;;;1999.90;999.90;;;29.40;29.60;;;;;;4992200;28;20166;-68
2021/10/25 14:59:26;;;;;;;1999.90;999.90;;;29.50;27.70;;;;;;4992814;28;20175;-68
2021/10/25 15:01:53;;;;;;;1999.90;999.90;;;29.40;28.80;;;;;;4992142;28;20567;-70
2021/10/25 15:04:20;;;;;;;1999.90;999.90;;;29.40;29.00;;;;;;4992360;28;20210;-67
2021/10/25 15:06:46;;;;;;;1999.90;999.90;;;29.40;26.20;;;;;;4992172;28;20186;-69
2021/10/25 15:09:13;;;;;;;1999.90;999.90;;;29.20;29.10;;;;;;4990476;28;20175;-69
2021/10/25 15:11:40;;;;;;;1999.90;999.90;;;29.30;30.00;;;;;;4992314;28;20167;-68
2021/10/25 15:14:07;;;;;;;1999.90;999.90;;;29.20;34.50;;;;;;4992286;28;20241;-71
2021/10/25 15:16:35;;;;;;;1999.90;999.90;;;29.40;34.80;;;;;;4992428;28;20664;-70
2021/10/25 15:19:02;;;;;;;1999.90;999.90;;;29.00;35.00;;;;;;4991656;28;20198;-70
2021/10/25 15:21:31;;;;;;;1999.90;999.90;;;28.70;37.00;;;;;;4992378;28;20199;-72
2021/10/25 15:24:00;;;;;;;1999.90;999.90;;;28.80;37.30;;;;;;4991435;28;20584;-69
2021/10/25 15:26:28;;;;;;;1999.90;999.90;;;28.70;38.50;;;;;;4992845;28;20163;-72
2021/10/25 15:28:55;;;;;;;1999.90;999.90;;;28.70;38.40;;;;;;4995889;28;20175;-70
2021/10/25 15:31:22;;;;;;;1999.90;999.90;;;28.60;38.00;;;;;;4995476;28;20225;-71
2021/10/25 15:33:49;;;;;;;1999.90;999.90;;;28.60;37.60;;;;;;4994465;28;20197;-70
2021/10/25 15:36:16;;;;;;;1999.90;999.90;;;28.60;38.50;;;;;;4995865;28;20179;-68
2021/10/25 15:38:44;;;;;;;1999.90;999.90;;;28.40;39.70;;;;;;4995105;28;20167;-70
2021/10/25 15:41:12;;;;;;;1999.90;999.90;;;28.30;39.60;;;;;;4995168;28;20219;-69
2021/10/25 15:43:40;;;;;;;1999.90;999.90;;;28.10;41.20;;;;;;4995649;28;20588;-70
2021/10/25 15:46:06;;;;;;;1999.90;999.90;;;27.90;40.80;;;;;;4993715;28;20212;-71
2021/10/25 15:48:33;;;;;;;1999.90;999.90;;;27.70;42.20;;;;;;4995322;28;20168;-70
2021/10/25 15:51:00;;;;;;;1999.90;999.90;;;27.60;42.50;;;;;;4995285;28;20202;-71
2021/10/25 15:53:27;;;;;;;1999.90;999.90;;;27.50;42.60;;;;;;4995105;28;20749;-69
2021/10/25 15:55:54;;;;;;;1999.90;999.90;;;27.30;43.40;;;;;;4995250;28;20229;-72
2021/10/25 15:58:21;;;;;;;1999.90;999.90;;;27.40;42.10;;;;;;4995167;28;20167;-72
2021/10/25 16:00:47;;;;;;;1999.90;999.90;;;27.30;41.90;;;;;;4994754;28;20195;-69
2021/10/25 16:03:14;;;;;;;1999.90;999.90;;;27.20;42.30;;;;;;4994823;28;20190;-70
2021/10/25 16:05:44;;;;;;;1999.90;999.90;;;27.20;43.60;;;;;;4995255;28;20174;-70
2021/10/25 16:08:11;;;;;;;1999.90;999.90;;;27.00;43.90;;;;;;4994515;28;20182;-69
2021/10/25 16:10:37;;;;;;;1999.90;999.90;;;26.90;44.30;;;;;;4994988;28;20536;-69
2021/10/25 16:13:04;;;;;;;1999.90;999.90;;;27.00;43.30;;;;;;4995045;28;20222;-72
2021/10/25 16:15:31;;;;;;;1999.90;999.90;;;27.00;43.70;;;;;;4994203;28;20177;-73
2021/10/25 16:17:58;;;;;;;1999.90;999.90;;;27.00;45.70;;;;;;4993786;28;20176;-72
2021/10/25 16:20:25;;;;;;;1999.90;999.90;;;26.50;46.10;;;;;;4994631;28;20203;-72
2021/10/25 16:22:52;;;;;;;1999.90;999.90;;;26.00;48.10;;;;;;4994384;28;20163;-69
2021/10/25 16:25:19;;;;;;;1999.90;999.90;;;25.70;47.30;;;;;;4994667;28;20171;-72
2021/10/25 16:27:46;;;;;;;1999.90;999.90;;;25.60;48.40;;;;;;4994999;28;20165;-72
2021/10/25 16:30:17;;;;;;;1999.90;999.90;;;25.40;48.80;;;;;;4994352;28;20163;-71
2021/10/25 16:32:47;;;;;;;1999.90;999.90;;;25.40;49.80;;;;;;4994745;28;20253;-71
2021/10/25 16:35:15;;;;;;;1999.90;999.90;;;25.40;49.10;;;;;;4994781;28;20629;-72
2021/10/25 16:37:42;;;;;;;1999.90;999.90;;;25.30;48.70;;;;;;4993904;28;20534;-73
2021/10/25 16:40:10;;;;;;;1999.90;999.90;;;25.20;48.40;;;;;;4994847;28;20249;-73
2021/10/25 16:42:38;;;;;;;1999.90;999.90;;;25.10;47.10;;;;;;4994457;28;20548;-70
2021/10/25 16:45:05;;;;;;;1999.90;999.90;;;25.10;46.40;;;;;;4993020;28;20649;-70
2021/10/25 16:47:35;;;;;;;1999.90;999.90;;;25.10;46.90;;;;;;4994256;28;20186;-71
2021/10/25 16:50:04;;;;;;;1999.90;999.90;;;25.10;45.30;;;;;;4994367;28;20174;-71
2021/10/25 16:52:51;;;;;;;1999.90;999.90;;;25.10;46.50;;;;;;4993284;28;20632;-70
2021/10/25 17:06:01;;;;;;;1999.90;999.90;;;24.70;46.20;;;;;;4993706;28;20174;-73
2021/10/25 17:11:13;;;;;;;1999.90;999.90;;;24.60;47.40;;;;;;4994223;28;20177;-75
2021/10/25 17:13:39;;;;;;;1999.90;999.90;;;24.50;47.50;;;;;;4993964;28;20246;-72
2021/10/25 17:16:07;;;;;;;1999.90;999.90;;;24.30;48.90;;;;;;4992967;28;20179;-70
2021/10/25 17:18:34;;;;;;;1999.90;999.90;;;24.30;48.60;;;;;;4994052;28;20533;-72
2021/10/25 17:21:25;;;;;;;1999.90;999.90;;;24.10;48.40;;;;;;4992473;28;20210;-71
2021/10/25 17:23:51;;;;;;;1999.90;999.90;;;24.10;48.10;;;;;;4993030;28;20179;-71
2021/10/25 17:26:18;;;;;;;1999.90;999.90;;;24.00;49.70;;;;;;4993344;28;20266;-73
2021/10/25 17:28:45;;;;;;;1999.90;999.90;;;23.80;51.50;;;;;;4993708;28;20186;-72
2021/10/25 17:31:12;;;;;;;1999.90;999.90;;;23.60;52.30;;;;;;4992935;28;20254;-73
2021/10/25 17:33:39;;;;;;;1999.90;999.90;;;23.40;53.00;;;;;;4994178;28;20163;-72
2021/10/25 17:36:10;;;;;;;1999.90;999.90;;;23.30;53.00;;;;;;4994018;28;20447;-72
2021/10/25 17:38:38;;;;;;;1999.90;999.90;;;23.20;53.50;;;;;;4993139;28;20163;-72
2021/10/25 17:41:05;;;;;;;1999.90;999.90;;;23.00;53.90;;;;;;4994732;28;20273;-73
2021/10/25 17:43:33;;;;;;;1999.90;999.90;;;22.90;53.50;;;;;;4993631;28;20175;-73
2021/10/25 17:46:03;;;;;;;1999.90;999.90;;;22.90;53.50;;;;;;4992921;28;20234;-72
2021/10/25 17:48:30;;;;;;;1999.90;999.90;;;22.90;53.90;;;;;;4993180;28;20172;-74
2021/10/25 17:50:57;;;;;;;1999.90;999.90;;;22.80;53.90;;;;;;4992835;28;20262;-71
2021/10/25 17:53:26;;;;;;;1999.90;999.90;;;22.80;54.00;;;;;;4992842;28;20178;-71
2021/10/25 17:55:53;;;;;;;1999.90;999.90;;;22.70;54.50;;;;;;4992951;28;20171;-74
2021/10/25 17:58:21;;;;;;;1999.90;999.90;;;22.60;54.00;;;;;;4993484;28;20167;-74
2021/10/25 18:00:52;;;;;;;1999.90;999.90;;;22.60;53.60;;;;;;4992252;28;20764;-72
2021/10/25 18:03:19;;;;;;;1999.90;999.90;;;22.60;53.40;;;;;;4993264;28;20246;-72
2021/10/25 18:05:46;;;;;;;1999.90;999.90;;;22.60;53.50;;;;;;4992681;28;20163;-72
2021/10/25 18:08:14;;;;;;;1999.90;999.90;;;22.50;54.60;;;;;;4992898;28;20522;-74
2021/10/25 18:10:47;;;;;;;1999.90;999.90;;;22.50;54.40;;;;;;4992961;28;20174;-74
2021/10/25 18:13:16;;;;;;;1999.90;999.90;;;22.40;53.80;;;;;;4992734;28;20191;-71
2021/10/25 18:15:43;;;;;;;1999.90;999.90;;;22.40;54.00;;;;;;4992183;28;20668;-70
2021/10/25 18:18:10;;;;;;;1999.90;999.90;;;22.30;54.60;;;;;;4992378;28;20159;-73
2021/10/25 18:20:41;;;;;;;1999.90;999.90;;;22.30;54.50;;;;;;4992886;28;20257;-72
2021/10/25 18:23:09;;;;;;;1999.90;999.90;;;22.20;55.00;;;;;;4992062;28;20166;-72
2021/10/25 18:25:37;;;;;;;1999.90;999.90;;;22.20;55.40;;;;;;4992713;28;20167;-75
2021/10/25 18:28:05;;;;;;;1999.90;999.90;;;22.20;55.70;;;;;;4993181;28;20233;-73
2021/10/25 18:30:37;;;;;;;1999.90;999.90;;;22.10;56.10;;;;;;4993361;28;20194;-73
2021/10/25 18:33:05;;;;;;;1999.90;999.90;;;22.00;56.20;;;;;;4994916;28;20171;-73
2021/10/25 18:35:32;;;;;;;1999.90;999.90;;;22.00;56.30;;;;;;4992641;28;20254;-72
2021/10/25 18:38:02;;;;;;;1999.90;999.90;;;22.00;56.80;;;;;;4994010;28;20227;-75
2021/10/25 18:40:30;;;;;;;1999.90;999.90;;;21.90;56.90;;;;;;4994601;28;20559;-73
2021/10/25 18:42:59;;;;;;;1999.90;999.90;;;21.90;58.20;;;;;;4993038;28;20218;-75
2021/10/25 18:45:27;;;;;;;1999.90;999.90;;;21.80;57.80;;;;;;4992868;28;20171;-73
2021/10/25 18:47:56;;;;;;;1999.90;999.90;;;21.70;57.90;;;;;;4993428;28;20159;-71
2021/10/25 18:50:23;;;;;;;1999.90;999.90;;;21.70;58.20;;;;;;4993687;28;20237;-71
2021/10/25 18:52:50;;;;;;;1999.90;999.90;;;21.70;58.70;;;;;;4991799;28;20748;-71
2021/10/25 18:55:19;;;;;;;1999.90;999.90;;;21.70;59.10;;;;;;4991830;28;20179;-71
2021/10/25 18:57:47;;;;;;;1999.90;999.90;;;21.70;59.50;;;;;;4992102;28;20167;-72
2021/10/25 19:00:16;;;;;;;1999.90;999.90;;;21.50;60.90;;;;;;4991810;28;20199;-72
2021/10/25 19:02:44;;;;;;;1999.90;999.90;;;21.50;61.30;;;;;;4994299;28;20176;-73
2021/10/25 19:05:13;;;;;;;1999.90;999.90;;;21.40;63.00;;;;;;4996300;28;20175;-72
2021/10/25 19:07:41;;;;;;;1999.90;999.90;;;21.40;63.90;;;;;;4995269;28;20172;-73
2021/10/25 19:10:09;;;;;;;1999.90;999.90;;;21.40;64.90;;;;;;4996497;28;20178;-70
2021/10/25 19:12:36;;;;;;;1999.90;999.90;;;21.30;65.50;;;;;;4995986;28;20321;-72
2021/10/25 19:15:05;;;;;;;1999.90;999.90;;;21.30;67.20;;;;;;4995518;28;20179;-72
2021/10/25 19:17:34;;;;;;;1999.90;999.90;;;21.30;67.80;;;;;;4996004;28;20163;-72
2021/10/25 19:20:01;;;;;;;1999.90;999.90;;;21.20;68.30;;;;;;4996939;28;20170;-74
2021/10/25 19:22:28;;;;;;;1999.90;999.90;;;21.20;70.50;;;;;;4995931;28;20171;-72
2021/10/25 19:24:58;;;;;;;1999.90;999.90;;;21.10;71.40;;;;;;4996231;28;20179;-72
2021/10/25 19:27:25;;;;;;;1999.90;999.90;;;21.00;71.90;;;;;;4994919;28;20167;-73
2021/10/25 19:29:52;;;;;;;1999.90;999.90;;;21.10;72.70;;;;;;4995599;28;20175;-72
2021/10/25 19:32:19;;;;;;;1999.90;999.90;;;21.00;72.80;;;;;;4996039;28;20666;-72
2021/10/25 19:34:50;;;;;;;1999.90;999.90;;;21.00;76.10;;;;;;4995912;28;20257;-74
2021/10/25 19:37:17;;;;;;;1999.90;999.90;;;20.90;77.50;;;;;;4995211;28;20163;-74
2021/10/25 19:39:44;;;;;;;1999.90;999.90;;;20.80;76.70;;;;;;4994154;28;20171;-71
2021/10/25 19:42:11;;;;;;;1999.90;999.90;;;20.80;77.70;;;;;;4995874;28;20170;-73
2021/10/25 19:44:38;;;;;;;1999.90;999.90;;;20.80;78.40;;;;;;4994347;28;20266;-74
2021/10/25 19:47:05;;;;;;;1999.90;999.90;;;20.80;78.80;;;;;;4995325;28;20172;-72
2021/10/25 19:49:32;;;;;;;1999.90;999.90;;;20.70;80.60;;;;;;4995885;28;20171;-71
2021/10/25 19:51:58;;;;;;;1999.90;999.90;;;20.70;78.10;;;;;;4994994;28;20159;-72
2021/10/25 19:54:25;;;;;;;1999.90;999.90;;;20.70;77.40;;;;;;4995584;28;20207;-73
2021/10/25 19:56:52;;;;;;;1999.90;999.90;;;20.60;77.90;;;;;;4995072;28;20171;-71
2021/10/25 19:59:19;;;;;;;1999.90;999.90;;;20.60;77.20;;;;;;4994916;28;20605;-73
2021/10/25 20:01:46;;;;;;;1999.90;999.90;;;20.60;79.40;;;;;;4995327;28;20217;-73
2021/10/25 20:04:14;;;;;;;1999.90;999.90;;;20.50;80.50;;;;;;4995304;28;20630;-71
2021/10/25 20:06:41;;;;;;;1999.90;999.90;;;20.50;79.60;;;;;;4995124;28;20171;-73
2021/10/25 20:09:08;;;;;;;1999.90;999.90;;;20.50;81.70;;;;;;4995019;28;20183;-73
2021/10/25 20:11:35;;;;;;;1999.90;999.90;;;20.50;80.40;;;;;;4995517;28;20637;-71
2021/10/25 20:14:04;;;;;;;1999.90;999.90;;;20.50;81.20;;;;;;4994265;28;20168;-73
2021/10/25 20:16:31;;;;;;;1999.90;999.90;;;20.50;83.50;;;;;;4995431;28;20171;-72
2021/10/25 20:18:58;;;;;;;1999.90;999.90;;;20.50;82.10;;;;;;4995342;28;20171;-72
2021/10/25 20:21:25;;;;;;;1999.90;999.90;;;20.50;82.70;;;;;;4994674;28;20210;-74
2021/10/25 20:23:52;;;;;;;1999.90;999.90;;;20.50;83.50;;;;;;4995236;28;20156;-71
2021/10/25 20:26:19;;;;;;;1999.90;999.90;;;20.50;82.60;;;;;;4994767;28;20531;-74
2021/10/25 20:28:46;;;;;;;1999.90;999.90;;;20.40;83.00;;;;;;4994897;28;20626;-72
2021/10/25 20:31:13;;;;;;;1999.90;999.90;;;20.30;84.30;;;;;;4994993;28;20175;-73
2021/10/25 20:33:40;;;;;;;1999.90;999.90;;;20.30;83.70;;;;;;4995135;28;20163;-73
2021/10/25 20:36:07;;;;;;;1999.90;999.90;;;20.30;86.00;;;;;;4994510;28;20291;-74
2021/10/25 20:38:37;;;;;;;1999.90;999.90;;;20.30;87.80;;;;;;4994895;28;20637;-69
2021/10/25 20:41:06;;;;;;;1999.90;999.90;;;20.20;89.70;;;;;;4994639;28;20381;-72
2021/10/25 20:43:34;;;;;;;1999.90;999.90;;;20.20;87.20;;;;;;4994456;28;20164;-68
2021/10/25 20:46:01;;;;;;;1999.90;999.90;;;20.40;85.60;;;;;;4995097;28;20182;-70
2021/10/25 20:48:28;;;;;;;1999.90;999.90;;;20.30;85.20;;;;;;4994632;28;20219;-72
2021/10/25 20:50:55;;;;;;;1999.90;999.90;;;20.30;87.40;;;;;;4994499;28;20178;-69
2021/10/25 20:53:23;;;;;;;1999.90;999.90;;;20.20;90.20;;;;;;4994510;28;20540;-69
2021/10/25 20:55:51;;;;;;;1999.90;999.90;;;20.20;88.00;;;;;;4994416;28;20621;-69
2021/10/25 20:58:19;;;;;;;1999.90;999.90;;;20.20;88.70;;;;;;4993425;28;20538;-69
2021/10/25 21:00:45;;;;;;;1999.90;999.90;;;20.20;87.50;;;;;;4994381;28;20662;-72
2021/10/25 21:03:12;;;;;;;1999.90;999.90;;;20.20;86.90;;;;;;4994563;28;20179;-75
2021/10/25 21:05:42;;;;;;;1999.90;999.90;;;20.10;86.60;;;;;;4993859;28;20175;-75
2021/10/25 21:08:11;;;;;;;1999.90;999.90;;;20.00;90.10;;;;;;4994761;28;20634;-73
2021/10/25 21:10:38;;;;;;;1999.90;999.90;;;19.90;87.30;;;;;;4993747;28;20209;-73
2021/10/25 21:13:05;;;;;;;1999.90;999.90;;;20.00;87.30;;;;;;4993950;28;20171;-71
2021/10/25 21:15:32;;;;;;;1999.90;999.90;;;20.10;86.30;;;;;;4994379;28;20625;-75
2021/10/25 21:18:02;;;;;;;1999.90;999.90;;;20.10;87.00;;;;;;4994288;28;20175;-74
2021/10/25 21:20:29;;;;;;;1999.90;999.90;;;20.00;90.90;;;;;;4993490;28;20213;-74
2021/10/25 21:23:00;;;;;;;1999.90;999.90;;;19.90;90.00;;;;;;4993961;28;20171;-71
2021/10/25 21:25:27;;;;;;;1999.90;999.90;;;19.90;90.00;;;;;;4993405;28;20626;-72
2021/10/25 21:27:53;;;;;;;1999.90;999.90;;;19.90;87.70;;;;;;4993685;28;20626;-71
2021/10/25 21:30:20;;;;;;;1999.90;999.90;;;20.10;85.60;;;;;;4994050;28;20163;-70
2021/10/25 21:32:47;;;;;;;1999.90;999.90;;;20.10;85.80;;;;;;4993553;28;20649;-71
2021/10/25 21:35:14;;;;;;;1999.90;999.90;;;20.10;85.50;;;;;;4993621;28;20175;-70
2021/10/25 21:37:40;;;;;;;1999.90;999.90;;;20.10;85.70;;;;;;4992212;28;20179;-71
2021/10/25 21:40:09;;;;;;;1999.90;999.90;;;20.10;81.70;;;;;;4993503;28;20223;-70
2021/10/25 21:42:36;;;;;;;1999.90;999.90;;;20.20;79.90;;;;;;4993049;28;20171;-71
2021/10/25 21:45:04;;;;;;;1999.90;999.90;;;20.30;78.80;;;;;;4993502;28;20179;-69
2021/10/25 21:47:31;;;;;;;1999.90;999.90;;;20.30;79.50;;;;;;4994037;28;20181;-71
2021/10/25 21:49:58;;;;;;;1999.90;999.90;;;20.30;79.20;;;;;;4992949;28;20203;-71
2021/10/25 21:52:26;;;;;;;1999.90;999.90;;;20.30;78.20;;;;;;4993873;28;20627;-70
2021/10/25 21:54:52;;;;;;;1999.90;999.90;;;20.40;74.90;;;;;;4993096;28;20171;-69
2021/10/25 21:57:19;;;;;;;1999.90;999.90;;;20.40;75.70;;;;;;4992940;28;20175;-72
2021/10/25 21:59:46;;;;;;;1999.90;999.90;;;20.40;76.30;;;;;;4993023;28;20661;-72
2021/10/25 22:02:12;;;;;;;1999.90;999.90;;;20.40;74.30;;;;;;4993287;28;20191;-70
2021/10/25 22:04:39;;;;;;;1999.90;999.90;;;20.40;75.40;;;;;;4992744;28;20175;-68
2021/10/25 22:07:06;;;;;;;1999.90;999.90;;;20.40;71.20;;;;;;4993262;28;20243;-71
2021/10/25 22:09:33;;;;;;;1999.90;999.90;;;20.40;74.80;;;;;;4992275;28;20182;-70
2021/10/25 22:12:00;;;;;;;1999.90;999.90;;;20.30;74.60;;;;;;4992668;28;20254;-71
2021/10/25 22:14:27;;;;;;;1999.90;999.90;;;20.40;70.70;;;;;;4993218;28;20207;-70
2021/10/25 22:16:54;;;;;;;1999.90;999.90;;;20.40;71.20;;;;;;4992829;28;20178;-71
2021/10/25 22:19:21;;;;;;;1999.90;999.90;;;20.40;72.20;;;;;;4992696;28;20196;-70
2021/10/25 22:21:48;;;;;;;1999.90;999.90;;;20.30;73.00;;;;;;4993058;28;20302;-72
2021/10/25 22:24:14;;;;;;;1999.90;999.90;;;20.30;69.60;;;;;;4992715;28;20179;-69
2021/10/25 22:26:41;;;;;;;1999.90;999.90;;;20.40;68.40;;;;;;4992782;28;20524;-71
2021/10/25 22:29:08;;;;;;;1999.90;999.90;;;20.30;72.40;;;;;;4993057;28;20167;-69
2021/10/25 22:31:35;;;;;;;1999.90;999.90;;;20.30;70.60;;;;;;4993390;28;20171;-69
2021/10/25 22:34:04;;;;;;;1999.90;999.90;;;20.30;71.60;;;;;;4992561;28;20186;-71
2021/10/25 22:36:31;;;;;;;1999.90;999.90;;;20.30;71.30;;;;;;4992850;28;20186;-70
2021/10/25 22:38:57;;;;;;;1999.90;999.90;;;20.20;72.60;;;;;;4992434;28;20167;-70
2021/10/25 22:41:24;;;;;;;1999.90;999.90;;;20.20;72.10;;;;;;4991919;28;20230;-71
2021/10/25 22:43:53;;;;;;;1999.90;999.90;;;20.20;72.60;;;;;;4993012;28;20171;-69
2021/10/25 22:46:20;;;;;;;1999.90;999.90;;;20.10;73.20;;;;;;4992777;28;20652;-69
2021/10/25 22:48:46;;;;;;;1999.90;999.90;;;20.10;72.30;;;;;;4992342;28;20242;-70
2021/10/25 22:51:13;;;;;;;1999.90;999.90;;;20.20;72.70;;;;;;4992474;28;20163;-70
2021/10/25 22:53:40;;;;;;;1999.90;999.90;;;20.20;71.10;;;;;;4992707;28;20175;-70
2021/10/25 22:56:06;;;;;;;1999.90;999.90;;;20.20;70.90;;;;;;4991946;28;20585;-70
2021/10/25 22:58:35;;;;;;;1999.90;999.90;;;20.30;72.40;;;;;;4992458;28;20175;-70
2021/10/25 23:01:02;;;;;;;1999.90;999.90;;;20.10;75.00;;;;;;4992584;28;20736;-68
2021/10/25 23:03:31;;;;;;;1999.90;999.90;;;20.10;73.20;;;;;;4991744;28;20535;-68
2021/10/25 23:05:58;;;;;;;1999.90;999.90;;;20.20;72.00;;;;;;4992383;28;20514;-69
2021/10/25 23:08:24;;;;;;;1999.90;999.90;;;20.30;70.10;;;;;;4992331;28;20176;-71
2021/10/25 23:10:51;;;;;;;1999.90;999.90;;;20.40;70.40;;;;;;4992293;28;20171;-69
2021/10/25 23:13:18;;;;;;;1999.90;999.90;;;20.40;70.30;;;;;;4992168;28;20521;-69
2021/10/25 23:15:45;;;;;;;1999.90;999.90;;;20.40;70.80;;;;;;4992532;28;20235;-69
2021/10/25 23:18:12;;;;;;;1999.90;999.90;;;20.40;71.30;;;;;;4991954;28;20263;-71
2021/10/25 23:20:39;;;;;;;1999.90;999.90;;;20.30;70.70;;;;;;4992353;28;20293;-70
2021/10/25 23:23:06;;;;;;;1999.90;999.90;;;20.30;71.10;;;;;;4992496;28;20246;-70